Time;durP1;ratioP1;P1;durP2;ratioP2;P2;SDS_P1;SDS_P2;PMS_P1;PMS_P2;Temp;Humidity;BMP_temperature;BMP_pressure;BME280_temperature;BME280_humidity;BME280_pressure;Samples;Min_cycle;Max_cycle;Signal;HPM_P1;HPM_P2
2022/10/19 00:01:44;;;;;;;20.20;8.20;;;12.20;99.90;;;;;;4982519;28;20165;-56
2022/10/19 00:04:30;;;;;;;13.75;7.57;;;12.20;99.90;;;;;;5010041;28;20401;-56
2022/10/19 00:07:15;;;;;;;12.00;7.20;;;12.30;99.90;;;;;;5008807;28;20030;-56
2022/10/19 00:10:02;;;;;;;32.13;18.63;;;12.40;99.90;;;;;;5008471;28;20033;-54
2022/10/19 00:12:49;;;;;;;12.88;8.90;;;12.40;99.90;;;;;;5008015;28;20021;-54
2022/10/19 00:15:39;;;;;;;14.55;8.30;;;12.40;99.90;;;;;;5010142;28;20104;-56
2022/10/19 00:18:25;;;;;;;15.00;8.18;;;12.40;99.90;;;;;;5004348;28;20092;-56
2022/10/19 00:21:17;;;;;;;16.52;8.45;;;12.40;99.90;;;;;;5008416;28;20029;-55
2022/10/19 00:24:04;;;;;;;12.73;8.40;;;12.50;99.90;;;;;;4995894;28;20453;-54
2022/10/19 00:26:50;;;;;;;10.50;6.97;;;12.40;99.90;;;;;;5008214;28;20453;-57
2022/10/19 00:29:36;;;;;;;16.50;8.27;;;12.30;99.90;;;;;;5012003;28;20046;-53
2022/10/19 00:32:21;;;;;;;16.63;8.23;;;12.20;99.90;;;;;;5006767;28;20026;-52
2022/10/19 00:35:07;;;;;;;13.50;8.50;;;12.00;99.90;;;;;;5008197;28;20405;-56
2022/10/19 00:37:53;;;;;;;13.63;8.60;;;12.10;99.90;;;;;;4996449;28;20034;-55
2022/10/19 00:40:39;;;;;;;12.90;7.85;;;11.90;99.90;;;;;;5008935;28;20069;-55
2022/10/19 00:43:29;;;;;;;19.65;9.18;;;11.90;99.90;;;;;;5006628;28;20038;-49
2022/10/19 00:46:15;;;;;;;14.80;8.38;;;11.80;99.90;;;;;;5011502;28;20092;-54
2022/10/19 00:49:24;;;;;;;17.08;8.77;;;11.80;99.90;;;;;;5006334;28;20033;-51
2022/10/19 00:52:15;;;;;;;17.45;8.05;;;11.80;99.90;;;;;;5010215;28;20402;-53
2022/10/19 00:55:01;;;;;;;15.35;8.25;;;11.80;99.90;;;;;;5009826;28;20101;-51
2022/10/19 00:57:47;;;;;;;16.65;9.43;;;11.70;99.90;;;;;;5009411;28;20044;-54
2022/10/19 01:00:33;;;;;;;15.52;8.80;;;11.80;99.90;;;;;;5009620;28;20038;-50
2022/10/19 01:03:36;;;;;;;18.40;9.50;;;11.80;99.90;;;;;;5008437;28;20030;-50
2022/10/19 01:06:23;;;;;;;13.77;7.90;;;11.80;99.90;;;;;;5008019;28;20375;-50
2022/10/19 01:09:09;;;;;;;16.10;8.45;;;11.90;99.90;;;;;;5007450;28;20022;-49
2022/10/19 01:12:07;;;;;;;12.00;7.65;;;12.00;99.90;;;;;;5007557;28;20034;-52
2022/10/19 01:15:21;;;;;;;19.65;7.18;;;12.30;99.90;;;;;;5008067;28;20022;-50
2022/10/19 01:18:19;;;;;;;13.55;6.82;;;12.40;99.90;;;;;;5006917;28;20013;-52
2022/10/19 01:21:39;;;;;;;13.13;7.63;;;12.50;99.90;;;;;;5011711;28;20509;-54
2022/10/19 01:24:42;;;;;;;9.48;6.28;;;12.60;99.90;;;;;;5015144;28;20042;-54
2022/10/19 01:27:38;;;;;;;10.38;6.75;;;12.70;99.90;;;;;;5017924;28;20033;-54
2022/10/19 01:30:32;;;;;;;8.23;6.20;;;12.70;99.90;;;;;;5018148;28;20057;-54
2022/10/19 01:33:38;;;;;;;15.85;6.78;;;12.80;99.90;;;;;;5008051;28;20490;-53
2022/10/19 01:36:44;;;;;;;12.70;8.10;;;12.80;99.90;;;;;;5009525;28;20033;-53
2022/10/19 01:39:48;;;;;;;15.55;7.70;;;12.70;99.90;;;;;;5008648;28;20053;-52
2022/10/19 01:42:45;;;;;;;12.90;8.35;;;12.60;99.90;;;;;;5009753;28;20041;-52
2022/10/19 01:45:40;;;;;;;12.57;7.70;;;12.40;99.90;;;;;;5007362;28;20081;-52
2022/10/19 01:48:31;;;;;;;11.98;7.00;;;12.50;99.90;;;;;;5009205;28;20034;-53
2022/10/19 01:51:23;;;;;;;13.05;8.13;;;12.30;99.90;;;;;;5004944;28;20097;-52
2022/10/19 01:54:14;;;;;;;16.52;7.63;;;12.30;99.90;;;;;;5006155;28;20395;-55
2022/10/19 01:57:01;;;;;;;15.80;7.93;;;12.10;99.90;;;;;;5005559;28;20037;-56
2022/10/19 01:59:48;;;;;;;12.15;7.68;;;11.70;99.90;;;;;;5009200;28;20041;-51
2022/10/19 02:02:39;;;;;;;14.50;8.23;;;11.70;99.90;;;;;;5007252;28;20025;-51
2022/10/19 02:05:31;;;;;;;12.75;7.32;;;11.60;99.90;;;;;;5008562;28;20034;-55
2022/10/19 02:08:35;;;;;;;13.18;7.55;;;11.60;99.90;;;;;;5007553;28;20381;-51
2022/10/19 02:11:22;;;;;;;17.20;8.43;;;11.80;99.90;;;;;;5005733;28;20521;-55
2022/10/19 02:14:12;;;;;;;18.30;8.20;;;11.80;99.90;;;;;;5008922;28;20490;-54
2022/10/19 02:17:06;;;;;;;16.08;7.95;;;11.90;99.90;;;;;;5008604;28;20018;-50
2022/10/19 02:19:53;;;;;;;14.77;7.97;;;11.90;99.90;;;;;;5009482;28;20105;-55
2022/10/19 02:22:39;;;;;;;13.45;7.60;;;11.90;99.90;;;;;;5002023;28;20104;-55
2022/10/19 02:25:25;;;;;;;15.65;7.55;;;11.80;99.90;;;;;;5008082;28;20030;-56
2022/10/19 02:28:11;;;;;;;13.15;7.05;;;11.70;99.90;;;;;;5010506;28;20040;-54
2022/10/19 02:30:58;;;;;;;13.32;7.38;;;11.80;99.90;;;;;;5010270;28;20026;-55
2022/10/19 02:33:44;;;;;;;15.35;8.02;;;11.80;99.90;;;;;;5010055;28;20030;-50
2022/10/19 02:36:30;;;;;;;15.35;7.57;;;11.70;99.90;;;;;;5010364;28;20026;-50
2022/10/19 02:39:16;;;;;;;15.57;8.55;;;11.80;99.90;;;;;;5010637;28;20068;-51
2022/10/19 02:42:35;;;;;;;19.98;8.82;;;11.60;99.90;;;;;;5012134;28;20022;-56
2022/10/19 02:45:26;;;;;;;14.02;8.00;;;11.50;99.90;;;;;;5009237;28;20037;-57
2022/10/19 02:48:21;;;;;;;15.18;7.78;;;11.40;99.90;;;;;;5011729;28;20104;-55
2022/10/19 02:51:36;;;;;;;13.23;8.23;;;11.50;99.90;;;;;;5008663;28;20059;-52
2022/10/19 02:54:23;;;;;;;16.67;7.63;;;11.50;99.90;;;;;;4997848;28;20041;-54
2022/10/19 02:57:21;;;;;;;14.63;7.68;;;11.40;99.90;;;;;;5012205;28;20021;-53
2022/10/19 03:00:08;;;;;;;13.98;8.30;;;11.50;99.90;;;;;;5012170;28;20022;-52
2022/10/19 03:02:54;;;;;;;17.50;8.27;;;11.40;99.90;;;;;;5009721;28;20022;-55
2022/10/19 03:05:40;;;;;;;16.35;8.68;;;11.50;99.90;;;;;;5009482;28;20033;-57
2022/10/19 03:08:26;;;;;;;11.18;6.95;;;11.70;99.90;;;;;;5011411;28;20038;-55
2022/10/19 03:11:11;;;;;;;12.38;7.15;;;11.60;99.90;;;;;;5005313;28;20032;-56
2022/10/19 03:13:57;;;;;;;12.45;7.75;;;11.60;99.90;;;;;;5003714;28;20039;-59
2022/10/19 03:16:43;;;;;;;11.93;7.00;;;11.60;99.90;;;;;;5006281;28;20533;-54
2022/10/19 03:19:30;;;;;;;19.50;7.43;;;11.60;99.90;;;;;;5012441;28;20034;-52
2022/10/19 03:22:16;;;;;;;15.90;8.07;;;11.60;99.90;;;;;;5012621;28;20085;-53
2022/10/19 03:25:02;;;;;;;21.20;8.73;;;11.50;99.90;;;;;;5010761;28;20085;-54
2022/10/19 03:27:48;;;;;;;15.68;7.80;;;11.30;99.90;;;;;;5012196;28;20022;-51
2022/10/19 03:30:34;;;;;;;16.85;7.45;;;10.90;99.90;;;;;;5006439;28;20387;-55
2022/10/19 03:33:21;;;;;;;18.38;9.00;;;10.80;99.90;;;;;;5007499;28;20022;-54
2022/10/19 03:36:24;;;;;;;15.73;7.60;;;10.80;99.90;;;;;;4996208;28;20030;-54
2022/10/19 03:39:13;;;;;;;17.80;8.95;;;10.80;99.90;;;;;;4997373;28;20029;-52
2022/10/19 03:41:59;;;;;;;19.02;8.85;;;10.60;99.90;;;;;;5009900;28;20033;-56
2022/10/19 03:44:45;;;;;;;22.42;8.07;;;10.70;99.90;;;;;;5007517;28;20410;-56
2022/10/19 03:47:31;;;;;;;16.10;7.07;;;10.80;99.90;;;;;;5008365;28;20061;-55
2022/10/19 03:50:17;;;;;;;14.18;7.60;;;10.80;99.90;;;;;;5011497;28;20045;-57
2022/10/19 03:53:03;;;;;;;17.27;8.32;;;10.90;99.90;;;;;;5011494;28;20026;-55
2022/10/19 03:55:49;;;;;;;18.00;8.20;;;10.80;99.90;;;;;;5011780;28;20104;-52
2022/10/19 03:58:37;;;;;;;22.23;9.18;;;10.60;99.90;;;;;;5008580;28;20030;-52
2022/10/19 04:01:24;;;;;;;20.52;8.70;;;10.60;99.90;;;;;;5009555;28;20030;-55
2022/10/19 04:04:13;;;;;;;11.65;7.75;;;10.50;99.90;;;;;;5011280;28;20052;-52
2022/10/19 04:06:59;;;;;;;17.52;10.07;;;10.60;99.90;;;;;;5008663;28;20029;-57
2022/10/19 04:09:45;;;;;;;17.77;8.57;;;10.60;99.90;;;;;;5006372;28;20030;-52
2022/10/19 04:12:32;;;;;;;31.63;9.43;;;10.70;99.90;;;;;;4994160;28;20034;-57
2022/10/19 04:15:18;;;;;;;75.20;40.63;;;10.70;99.90;;;;;;5008315;28;20022;-55
2022/10/19 04:18:04;;;;;;;27.52;15.27;;;10.80;99.90;;;;;;5008509;28;20018;-53
2022/10/19 04:21:02;;;;;;;18.55;8.60;;;10.90;99.90;;;;;;5009947;28;20026;-52
2022/10/19 04:23:49;;;;;;;14.85;7.80;;;10.90;99.90;;;;;;5008697;28;20498;-56
2022/10/19 04:26:42;;;;;;;14.50;7.82;;;10.90;99.90;;;;;;5010631;28;20033;-54
2022/10/19 04:29:28;;;;;;;13.90;8.50;;;10.90;99.90;;;;;;5012486;28;20034;-56
2022/10/19 04:32:14;;;;;;;20.88;9.55;;;10.80;99.90;;;;;;5010237;28;20105;-56
2022/10/19 04:35:00;;;;;;;13.60;8.38;;;10.90;99.90;;;;;;5006753;28;20065;-58
2022/10/19 04:37:45;;;;;;;13.98;8.52;;;10.90;99.90;;;;;;5009886;28;20026;-52
2022/10/19 04:40:34;;;;;;;13.20;8.65;;;10.90;99.90;;;;;;5007879;28;20053;-54
2022/10/19 04:43:21;;;;;;;17.70;9.73;;;10.80;99.90;;;;;;5008881;28;20041;-52
2022/10/19 04:46:19;;;;;;;14.90;8.25;;;10.80;99.90;;;;;;5009698;28;20089;-56
2022/10/19 04:49:05;;;;;;;16.17;8.68;;;10.90;99.90;;;;;;5010150;28;20033;-57
2022/10/19 04:51:51;;;;;;;22.10;9.68;;;10.90;99.90;;;;;;5007107;28;20112;-55
2022/10/19 04:54:37;;;;;;;19.88;9.63;;;10.90;99.90;;;;;;5007848;28;20030;-55
2022/10/19 04:57:23;;;;;;;16.55;9.13;;;10.90;99.90;;;;;;5010120;28;20514;-55
2022/10/19 05:00:09;;;;;;;14.63;8.73;;;10.90;99.90;;;;;;5007319;28;20478;-53
2022/10/19 05:02:55;;;;;;;15.82;9.43;;;10.90;99.90;;;;;;5007733;28;20021;-57
2022/10/19 05:05:41;;;;;;;17.65;9.68;;;10.90;99.90;;;;;;5001447;28;20022;-55
2022/10/19 05:08:27;;;;;;;23.73;10.68;;;10.80;99.90;;;;;;5005435;28;20040;-55
2022/10/19 05:11:14;;;;;;;19.35;9.75;;;10.70;99.90;;;;;;5010156;28;20038;-53
2022/10/19 05:14:00;;;;;;;17.48;9.30;;;10.70;99.90;;;;;;5006435;28;20026;-56
2022/10/19 05:16:46;;;;;;;18.52;9.88;;;10.70;99.90;;;;;;5006091;28;20455;-52
2022/10/19 05:19:31;;;;;;;17.17;10.38;;;10.70;99.90;;;;;;5005621;28;20049;-56
2022/10/19 05:22:17;;;;;;;25.45;12.07;;;10.70;99.90;;;;;;5007388;28;20502;-54
2022/10/19 05:25:04;;;;;;;21.25;10.30;;;10.60;99.90;;;;;;4995428;28;20026;-58
2022/10/19 05:27:51;;;;;;;13.25;9.57;;;10.70;99.90;;;;;;5006104;28;20079;-53
2022/10/19 05:30:38;;;;;;;14.93;9.50;;;10.80;99.90;;;;;;5007124;28;20509;-56
2022/10/19 05:33:24;;;;;;;14.57;8.88;;;10.80;99.90;;;;;;5009093;28;20041;-55
2022/10/19 05:36:18;;;;;;;16.20;9.10;;;10.80;99.90;;;;;;5009760;28;20018;-58
2022/10/19 05:39:17;;;;;;;19.58;10.10;;;10.90;99.90;;;;;;5009662;28;20058;-55
2022/10/19 05:42:03;;;;;;;18.08;9.45;;;10.90;99.90;;;;;;5009003;28;20021;-51
2022/10/19 05:44:49;;;;;;;18.35;10.27;;;11.00;99.90;;;;;;5006970;28;20133;-52
2022/10/19 05:47:35;;;;;;;19.27;10.25;;;10.90;99.90;;;;;;5007767;28;20040;-52
2022/10/19 05:50:21;;;;;;;18.20;10.00;;;10.90;99.90;;;;;;4992131;28;20492;-53
2022/10/19 05:53:07;;;;;;;53.95;29.83;;;10.60;99.90;;;;;;4996515;28;20132;-56
2022/10/19 05:55:52;;;;;;;38.50;23.40;;;10.60;99.90;;;;;;5007886;28;20494;-52
2022/10/19 05:58:39;;;;;;;24.13;13.23;;;10.80;99.90;;;;;;5009013;28;20030;-51
2022/10/19 06:01:26;;;;;;;23.75;10.00;;;10.70;99.90;;;;;;5014882;28;20034;-51
2022/10/19 06:04:13;;;;;;;22.77;9.52;;;10.80;99.90;;;;;;5011327;28;20022;-55
2022/10/19 06:07:00;;;;;;;18.77;9.63;;;10.90;99.90;;;;;;5026497;28;20080;-57
2022/10/19 06:09:46;;;;;;;18.00;8.90;;;10.90;99.90;;;;;;5030311;28;20379;-56
2022/10/19 06:12:32;;;;;;;16.80;8.38;;;10.90;99.90;;;;;;5020292;28;20041;-56
2022/10/19 06:15:18;;;;;;;20.77;9.18;;;10.90;99.90;;;;;;5012178;28;20034;-56
2022/10/19 06:18:05;;;;;;;16.25;8.82;;;10.70;99.90;;;;;;5012231;28;20029;-53
2022/10/19 06:20:51;;;;;;;20.02;8.40;;;10.70;99.90;;;;;;5014740;28;20038;-55
2022/10/19 06:23:37;;;;;;;20.02;9.40;;;10.70;99.90;;;;;;5010628;28;20421;-55
2022/10/19 06:26:24;;;;;;;38.97;13.20;;;10.80;99.90;;;;;;5008899;28;20033;-54
2022/10/19 06:29:10;;;;;;;26.90;10.65;;;10.90;99.90;;;;;;5010255;28;20133;-52
2022/10/19 06:31:58;;;;;;;49.67;13.00;;;11.00;99.90;;;;;;4993810;28;20113;-50
2022/10/19 06:34:44;;;;;;;28.77;9.98;;;11.00;99.90;;;;;;5011772;28;20112;-50
2022/10/19 06:37:30;;;;;;;40.03;20.23;;;11.10;99.90;;;;;;5012658;28;20414;-51
2022/10/19 06:40:16;;;;;;;24.15;12.55;;;11.20;99.90;;;;;;5008022;28;20346;-53
2022/10/19 06:43:02;;;;;;;18.77;9.32;;;11.20;99.90;;;;;;5008593;28;20022;-57
2022/10/19 06:45:48;;;;;;;20.70;8.57;;;11.30;99.90;;;;;;5009366;28;20097;-55
2022/10/19 06:48:34;;;;;;;24.08;9.07;;;11.30;99.90;;;;;;4998442;28;20041;-55
2022/10/19 06:51:20;;;;;;;26.55;9.07;;;11.30;99.90;;;;;;4999002;28;20173;-56
2022/10/19 06:54:07;;;;;;;31.08;9.27;;;11.40;99.90;;;;;;5019388;28;20033;-57
2022/10/19 06:56:52;;;;;;;23.40;9.40;;;11.40;99.90;;;;;;5020823;28;20434;-58
2022/10/19 06:59:38;;;;;;;20.52;8.63;;;11.30;99.90;;;;;;5016258;28;20022;-55
2022/10/19 07:02:24;;;;;;;22.55;9.35;;;11.40;99.90;;;;;;5010838;28;20546;-57
2022/10/19 07:05:10;;;;;;;20.85;9.27;;;11.40;99.90;;;;;;5014782;28;20037;-54
2022/10/19 07:07:57;;;;;;;20.08;9.02;;;11.50;99.90;;;;;;5002677;28;20030;-52
2022/10/19 07:10:43;;;;;;;29.25;9.52;;;11.40;99.90;;;;;;5010776;28;20634;-50
2022/10/19 07:13:29;;;;;;;14.40;7.53;;;11.50;99.90;;;;;;4999469;28;20498;-53
2022/10/19 07:16:17;;;;;;;15.05;7.00;;;11.60;99.90;;;;;;5011014;28;20077;-53
2022/10/19 07:19:03;;;;;;;22.38;8.40;;;11.60;99.90;;;;;;5013221;28;20105;-55
2022/10/19 07:21:50;;;;;;;13.90;7.85;;;11.70;99.90;;;;;;4998110;28;20104;-56
2022/10/19 07:24:37;;;;;;;11.45;6.82;;;11.70;99.90;;;;;;5013614;28;20040;-53
2022/10/19 07:27:23;;;;;;;17.88;7.53;;;11.70;99.90;;;;;;5003785;28;20109;-56
2022/10/19 07:30:09;;;;;;;13.07;7.30;;;11.70;99.90;;;;;;5012264;28;20022;-58
2022/10/19 07:32:55;;;;;;;14.40;6.97;;;11.60;99.90;;;;;;5007226;28;20033;-54
2022/10/19 07:35:41;;;;;;;32.28;19.05;;;11.60;99.90;;;;;;5012038;28;20027;-54
2022/10/19 07:38:28;;;;;;;17.92;10.52;;;11.60;99.90;;;;;;5011698;28;20030;-54
2022/10/19 07:41:17;;;;;;;13.82;7.47;;;11.60;99.90;;;;;;4997590;28;20510;-56
2022/10/19 07:44:04;;;;;;;17.98;6.95;;;11.70;99.90;;;;;;4995852;28;20054;-57
2022/10/19 07:46:50;;;;;;;12.20;6.03;;;11.70;99.90;;;;;;5008109;28;20029;-55
2022/10/19 07:49:37;;;;;;;17.83;7.00;;;11.80;99.90;;;;;;5012073;28;20442;-54
2022/10/19 07:52:23;;;;;;;13.32;6.68;;;11.80;99.90;;;;;;5003472;28;20104;-58
2022/10/19 07:55:09;;;;;;;13.48;6.15;;;11.80;99.90;;;;;;5008214;28;20021;-54
2022/10/19 07:57:55;;;;;;;17.45;6.63;;;11.90;99.90;;;;;;4992963;28;20457;-52
2022/10/19 08:00:41;;;;;;;31.65;14.18;;;11.70;99.90;;;;;;5005283;28;20097;-53
2022/10/19 08:03:26;;;;;;;11.77;7.88;;;11.70;99.90;;;;;;5009723;28;20077;-55
2022/10/19 08:06:15;;;;;;;11.90;6.70;;;11.80;99.90;;;;;;5010792;28;20034;-55
2022/10/19 08:09:01;;;;;;;14.07;6.32;;;11.90;99.90;;;;;;5010531;28;20029;-53
2022/10/19 08:11:47;;;;;;;11.10;5.45;;;11.90;99.90;;;;;;5007953;28;20056;-54
2022/10/19 08:14:33;;;;;;;13.32;6.20;;;12.00;99.90;;;;;;5000298;28;20045;-56
2022/10/19 08:17:19;;;;;;;10.20;5.75;;;12.10;99.90;;;;;;5012388;28;20360;-54
2022/10/19 08:20:06;;;;;;;12.15;5.85;;;12.20;99.90;;;;;;5004069;28;20554;-57
2022/10/19 08:22:52;;;;;;;8.55;5.07;;;12.30;99.90;;;;;;5005507;28;20547;-57
2022/10/19 08:25:38;;;;;;;8.93;5.20;;;12.40;99.90;;;;;;5008672;28;20119;-57
2022/10/19 08:28:24;;;;;;;9.13;5.35;;;12.40;99.90;;;;;;5007438;28;20515;-58
2022/10/19 08:31:17;;;;;;;12.52;5.47;;;12.50;99.90;;;;;;5010128;28;20100;-56
2022/10/19 08:34:03;;;;;;;11.30;6.15;;;12.50;99.90;;;;;;5006787;28;20088;-54
2022/10/19 08:36:49;;;;;;;8.02;5.47;;;12.50;99.90;;;;;;5007366;28;20140;-53
2022/10/19 08:39:35;;;;;;;10.13;5.78;;;12.60;99.90;;;;;;5011491;28;20018;-58
2022/10/19 08:42:31;;;;;;;14.18;5.68;;;12.60;99.90;;;;;;5011087;28;20030;-58
2022/10/19 08:45:42;;;;;;;9.38;5.13;;;12.70;99.90;;;;;;5008814;28;20544;-58
2022/10/19 08:48:35;;;;;;;10.88;4.03;;;12.70;99.90;;;;;;4988396;28;21914;-59
2022/10/19 08:51:21;;;;;;;10.50;4.93;;;12.80;99.90;;;;;;5011608;28;20034;-56
2022/10/19 08:54:14;;;;;;;9.23;4.47;;;12.70;99.90;;;;;;5010842;28;20065;-58
2022/10/19 08:57:38;;;;;;;13.48;4.45;;;12.70;99.90;;;;;;4995903;28;20053;-58
2022/10/19 09:00:47;;;;;;;11.93;4.20;;;12.70;99.90;;;;;;4986452;28;20030;-56
2022/10/19 09:04:02;;;;;;;9.80;4.25;;;12.70;99.90;;;;;;5012216;28;20018;-55
2022/10/19 09:07:24;;;;;;;7.03;3.40;;;12.80;99.90;;;;;;5011338;28;20453;-56
2022/10/19 09:10:13;;;;;;;19.83;10.73;;;12.70;99.90;;;;;;5011111;28;20491;-60
2022/10/19 09:13:25;;;;;;;10.00;4.20;;;12.90;99.90;;;;;;5011177;28;20026;-57
2022/10/19 09:16:14;;;;;;;6.25;3.22;;;13.00;99.90;;;;;;5010540;28;20395;-56
2022/10/19 09:19:01;;;;;;;6.18;3.30;;;13.10;99.90;;;;;;5011004;28;20030;-57
2022/10/19 09:22:01;;;;;;;8.52;3.70;;;13.20;99.90;;;;;;5010837;28;20026;-56
2022/10/19 09:24:53;;;;;;;6.82;3.20;;;13.30;99.90;;;;;;5011081;28;20062;-55
2022/10/19 09:27:42;;;;;;;6.78;3.45;;;13.40;99.90;;;;;;4995884;28;20044;-56
2022/10/19 09:30:29;;;;;;;5.65;3.13;;;13.20;99.90;;;;;;5011071;28;20030;-56
2022/10/19 09:33:27;;;;;;;10.02;3.45;;;13.30;99.90;;;;;;5010227;28;20486;-55
2022/10/19 09:36:13;;;;;;;9.38;3.30;;;13.40;99.90;;;;;;5010704;28;20030;-55
2022/10/19 09:38:59;;;;;;;7.57;3.22;;;13.40;99.90;;;;;;5010304;28;20069;-55
2022/10/19 09:41:50;;;;;;;8.32;3.63;;;13.40;99.90;;;;;;5010480;28;20041;-54
2022/10/19 09:44:36;;;;;;;5.32;2.55;;;13.40;99.90;;;;;;5011582;28;20069;-56
2022/10/19 09:47:36;;;;;;;8.05;3.05;;;13.60;99.90;;;;;;5010232;28;20482;-56
2022/10/19 09:50:24;;;;;;;6.70;3.10;;;13.80;99.70;;;;;;5011051;28;20598;-57
2022/10/19 09:53:20;;;;;;;8.00;3.38;;;13.90;99.50;;;;;;5010701;28;20089;-56
2022/10/19 09:56:15;;;;;;;7.47;3.30;;;13.80;99.90;;;;;;5011129;28;20026;-57
2022/10/19 09:59:01;;;;;;;6.55;3.42;;;13.70;99.90;;;;;;5010583;28;20026;-58
2022/10/19 10:02:18;;;;;;;5.93;3.30;;;13.60;99.90;;;;;;4995913;28;20446;-58
2022/10/19 10:05:13;;;;;;;8.82;2.67;;;13.50;99.80;;;;;;5010966;28;20446;-54
2022/10/19 10:08:00;;;;;;;5.65;3.25;;;13.50;99.20;;;;;;5010064;28;20037;-53
2022/10/19 10:10:53;;;;;;;7.57;3.15;;;13.50;99.10;;;;;;5009054;28;20030;-58
2022/10/19 10:13:48;;;;;;;5.70;3.13;;;13.60;99.60;;;;;;5010540;28;20034;-58
2022/10/19 10:16:35;;;;;;;10.43;3.47;;;13.60;99.90;;;;;;5010948;28;20025;-56
2022/10/19 10:19:25;;;;;;;8.80;3.97;;;13.60;99.90;;;;;;5010585;28;20121;-56
2022/10/19 10:22:27;;;;;;;7.43;3.53;;;13.50;99.90;;;;;;5010105;28;20407;-56
2022/10/19 10:25:17;;;;;;;13.07;4.00;;;13.50;99.90;;;;;;5011107;28;20030;-53
2022/10/19 10:28:19;;;;;;;7.78;3.97;;;13.40;99.90;;;;;;5009928;28;20057;-58
2022/10/19 10:31:07;;;;;;;7.85;3.95;;;13.60;99.90;;;;;;4995494;28;20022;-55
2022/10/19 10:33:56;;;;;;;6.88;3.70;;;13.60;99.90;;;;;;5010691;28;20033;-53
2022/10/19 10:36:43;;;;;;;6.50;4.15;;;13.60;99.90;;;;;;5009942;28;20030;-56
2022/10/19 10:39:29;;;;;;;7.88;3.90;;;13.70;99.90;;;;;;4997022;28;20034;-56
2022/10/19 10:42:19;;;;;;;6.75;3.90;;;13.70;99.90;;;;;;5010357;28;20032;-55
2022/10/19 10:45:21;;;;;;;11.65;4.28;;;13.60;99.90;;;;;;5010377;28;20029;-56
2022/10/19 10:48:18;;;;;;;10.07;3.80;;;13.60;99.90;;;;;;5013100;28;20053;-59
2022/10/19 10:51:19;;;;;;;7.43;4.38;;;13.50;99.90;;;;;;5013820;28;20030;-55
2022/10/19 10:54:17;;;;;;;8.25;3.95;;;13.40;99.90;;;;;;5013579;28;20557;-55
2022/10/19 10:57:14;;;;;;;6.13;3.72;;;13.00;99.90;;;;;;5013343;28;20030;-57
2022/10/19 11:00:13;;;;;;;13.88;4.88;;;13.10;99.90;;;;;;5013669;28;20022;-59
2022/10/19 11:03:13;;;;;;;7.20;3.53;;;13.30;99.90;;;;;;5013415;28;20038;-58
2022/10/19 11:06:01;;;;;;;7.97;4.07;;;13.30;99.90;;;;;;5014246;28;20037;-58
2022/10/19 11:09:20;;;;;;;9.05;4.45;;;13.30;99.90;;;;;;5013388;28;20049;-57
2022/10/19 11:12:12;;;;;;;9.18;4.60;;;13.30;99.90;;;;;;5012952;28;20022;-57
2022/10/19 11:15:14;;;;;;;5.60;3.65;;;13.50;99.90;;;;;;5014583;28;20064;-55
2022/10/19 11:18:09;;;;;;;6.82;4.00;;;13.50;99.90;;;;;;5012790;28;20030;-54
2022/10/19 11:21:11;;;;;;;;;;;13.50;99.90;;;;;;5013403;28;20426;-55
2022/10/19 11:24:13;;;;;;;7.63;4.00;;;13.50;99.90;;;;;;5013224;28;19912;-58
2022/10/19 11:27:02;;;;;;;9.40;4.10;;;13.40;99.90;;;;;;5012897;28;20025;-60
2022/10/19 11:30:03;;;;;;;11.27;4.40;;;13.50;99.90;;;;;;5013281;28;20033;-58
2022/10/19 11:33:32;;;;;;;6.18;3.85;;;13.60;99.90;;;;;;5013068;28;20081;-54
2022/10/19 11:36:55;;;;;;;8.32;3.58;;;13.60;99.90;;;;;;4986420;28;20071;-55
2022/10/19 11:40:12;;;;;;;8.85;3.78;;;13.60;99.50;;;;;;5013128;28;20022;-55
2022/10/19 11:43:32;;;;;;;10.02;4.90;;;13.50;99.40;;;;;;4998740;28;20032;-53
2022/10/19 11:46:29;;;;;;;13.88;7.40;;;13.60;99.10;;;;;;5009673;28;20509;-57
2022/10/19 11:49:46;;;;;;;15.00;8.02;;;13.60;98.70;;;;;;5012883;28;20033;-57
2022/10/19 11:52:53;;;;;;;8.10;3.42;;;13.60;98.60;;;;;;5013543;28;20226;-56
2022/10/19 11:55:48;;;;;;;5.70;2.70;;;13.60;98.00;;;;;;5012889;28;20020;-58
2022/10/19 11:59:12;;;;;;;8.60;2.80;;;13.50;98.10;;;;;;5011427;28;20097;-59
2022/10/19 12:02:29;;;;;;;6.60;2.95;;;13.40;98.40;;;;;;5000329;28;20038;-60
2022/10/19 12:05:18;;;;;;;5.45;2.67;;;13.30;98.40;;;;;;5013019;28;20022;-59
2022/10/19 12:08:21;;;;;;;8.68;2.95;;;13.30;98.60;;;;;;4998613;28;20659;-60
2022/10/19 12:11:47;;;;;;;6.55;2.95;;;13.30;98.50;;;;;;5012617;28;20033;-55
2022/10/19 12:14:39;;;;;;;7.63;2.60;;;13.20;98.80;;;;;;4984737;28;20041;-57
2022/10/19 12:17:29;;;;;;;7.13;3.60;;;13.20;98.60;;;;;;4998540;28;20080;-57
2022/10/19 12:20:18;;;;;;;6.57;2.92;;;13.30;98.70;;;;;;5012531;28;20025;-57
2022/10/19 12:23:35;;;;;;;5.10;2.38;;;13.40;98.60;;;;;;5012414;28;20029;-55
2022/10/19 12:26:21;;;;;;;8.00;3.05;;;13.40;98.10;;;;;;5012797;28;20056;-56
2022/10/19 12:29:39;;;;;;;6.78;2.90;;;13.40;98.30;;;;;;5013105;28;20081;-58
2022/10/19 12:32:27;;;;;;;9.38;2.67;;;13.50;98.50;;;;;;5012539;28;20065;-55
2022/10/19 12:35:35;;;;;;;6.72;2.47;;;13.60;98.60;;;;;;4998387;28;20034;-57
2022/10/19 12:38:29;;;;;;;7.78;2.72;;;13.50;98.40;;;;;;4998075;28;20484;-57
2022/10/19 12:41:21;;;;;;;6.30;2.70;;;13.60;98.60;;;;;;5012652;28;20022;-56
2022/10/19 12:44:49;;;;;;;6.03;3.13;;;13.60;98.00;;;;;;5012716;28;20033;-53
2022/10/19 12:47:34;;;;;;;7.95;2.90;;;13.50;97.60;;;;;;4982177;28;20044;-56
2022/10/19 12:50:46;;;;;;;5.22;2.58;;;13.50;97.60;;;;;;5019448;28;20520;-54
2022/10/19 12:53:46;;;;;;;10.63;3.35;;;13.60;97.10;;;;;;5019918;28;20478;-58
2022/10/19 12:56:47;;;;;;;9.57;2.42;;;13.60;97.40;;;;;;4998052;28;20030;-57
2022/10/19 12:59:35;;;;;;;7.00;2.55;;;13.60;97.30;;;;;;5011929;28;20026;-59
2022/10/19 13:02:27;;;;;;;6.47;2.70;;;13.50;97.30;;;;;;5011499;28;20034;-57
2022/10/19 13:05:24;;;;;;;5.65;2.78;;;13.50;97.00;;;;;;4997455;28;20065;-59
2022/10/19 13:08:26;;;;;;;8.27;2.70;;;13.50;97.20;;;;;;4995969;28;20093;-59
2022/10/19 13:11:14;;;;;;;8.65;3.17;;;13.40;96.70;;;;;;5010864;28;20041;-58
2022/10/19 13:14:46;;;;;;;5.90;2.55;;;13.50;96.70;;;;;;5010794;28;20098;-57
2022/10/19 13:17:45;;;;;;;7.13;2.40;;;13.40;96.10;;;;;;4995719;28;20505;-56
2022/10/19 13:20:32;;;;;;;7.78;2.20;;;13.40;95.90;;;;;;5010755;28;20457;-58
2022/10/19 13:23:30;;;;;;;8.10;3.10;;;13.30;95.90;;;;;;5011075;28;20117;-55
2022/10/19 13:26:30;;;;;;;5.75;2.33;;;13.20;95.80;;;;;;5010455;28;20097;-55
2022/10/19 13:29:46;;;;;;;7.00;2.10;;;13.20;96.00;;;;;;5011688;28;20022;-58
2022/10/19 13:32:43;;;;;;;5.35;2.55;;;13.20;96.00;;;;;;5011147;28;20033;-56
2022/10/19 13:35:34;;;;;;;5.28;2.38;;;13.30;95.80;;;;;;5009787;28;20049;-58
2022/10/19 13:38:29;;;;;;;3.70;2.10;;;13.30;95.90;;;;;;4997164;28;20061;-56
2022/10/19 13:41:43;;;;;;;3.53;2.55;;;13.30;95.50;;;;;;5009339;28;20030;-57
2022/10/19 13:44:35;;;;;;;3.67;2.40;;;13.40;95.30;;;;;;5009730;28;20022;-55
2022/10/19 13:47:38;;;;;;;5.82;2.47;;;13.20;95.70;;;;;;5009828;28;20038;-57
2022/10/19 13:50:38;;;;;;;4.55;2.35;;;13.10;95.70;;;;;;5012668;28;20030;-58
2022/10/19 13:54:06;;;;;;;4.88;2.10;;;13.20;95.80;;;;;;5009852;28;20618;-53
2022/10/19 13:57:21;;;;;;;8.63;2.90;;;13.20;95.90;;;;;;4988996;28;20642;-53
2022/10/19 14:00:16;;;;;;;5.75;2.40;;;13.30;96.10;;;;;;5009752;28;20109;-56
2022/10/19 14:03:21;;;;;;;6.78;3.17;;;13.40;96.10;;;;;;5010475;28;20092;-55
2022/10/19 14:06:31;;;;;;;5.45;2.25;;;13.40;95.30;;;;;;5009774;28;20442;-55
2022/10/19 14:09:43;;;;;;;4.13;2.63;;;13.30;95.60;;;;;;5011554;28;20040;-57
2022/10/19 14:12:32;;;;;;;3.22;2.10;;;13.40;95.70;;;;;;5009675;28;20037;-57
2022/10/19 14:15:29;;;;;;;6.05;2.45;;;13.40;95.80;;;;;;5010590;28;20021;-55
2022/10/19 14:18:23;;;;;;;8.18;2.33;;;13.50;95.80;;;;;;5011416;28;20129;-56
2022/10/19 14:21:09;;;;;;;15.13;3.42;;;13.50;95.90;;;;;;5011470;28;20120;-56
2022/10/19 14:23:55;;;;;;;11.65;2.78;;;13.40;95.50;;;;;;5013664;28;20060;-53
2022/10/19 14:26:41;;;;;;;5.22;2.40;;;13.30;95.70;;;;;;5013598;28;20034;-56
2022/10/19 14:29:28;;;;;;;4.93;2.92;;;13.20;95.60;;;;;;5014136;28;20093;-55
2022/10/19 14:32:16;;;;;;;9.48;4.30;;;13.30;95.80;;;;;;5012327;28;20034;-52
2022/10/19 14:35:15;;;;;;;7.47;3.60;;;13.30;95.70;;;;;;5012816;28;20030;-55
2022/10/19 14:38:03;;;;;;;7.25;3.22;;;13.30;95.40;;;;;;5012357;28;20213;-57
2022/10/19 14:40:49;;;;;;;3.88;2.42;;;13.30;95.50;;;;;;5013761;28;20105;-55
2022/10/19 14:43:35;;;;;;;5.85;2.53;;;13.40;95.30;;;;;;5013745;28;20033;-58
2022/10/19 14:46:29;;;;;;;8.38;2.78;;;13.40;95.30;;;;;;5012903;28;20026;-54
2022/10/19 14:49:15;;;;;;;4.55;2.40;;;13.40;95.40;;;;;;5013698;28;20037;-53
2022/10/19 14:52:02;;;;;;;5.15;2.45;;;13.30;95.50;;;;;;5011810;28;20084;-55